Merrill FLD

About
Name: Merrill FLD
Identifier:  MRI/PAMR
Owner:  Municipality of Anchorage
Public/Private:  Public
Local Time:  22. Sep 04:03 AKDT
Description: Merrill Field is a public-use general aviation airport located one mile east of downtown Anchorage in the U.S. state of Alaska. The airport is owned by Municipality of Anchorage. It opened in 1930 as Anchorage Aviation Field and was renamed in honor of Alaska aviation pioneer Russel Merrill.
Source: Wikipedia
Location
Runways
Identifier Length (m/ft) Surface
7/25 4,000/4,000 Asphalt
16/34 2,640/2,640 Asphalt
5/23 2,000/2,000 Asphalt/Gravel
Statistics
Flights per Day:
0 flights
Distance: 4,038km (2,509mi)
Flights delayed:
-100% (0 flights per day delayed)
Delay Average: 185 minutes
Current Weather
 4 C (Humidity: 75%)
  3kt (5km/h / 3mph) from 80°
  Few clouds at 4,500 feet (1,371 meter)
  16km (10 mi.)
 METAR PAMR 221153Z 08003KT 10SM FEW045 04/00 A2961 RMK AO2 SLP026 T00390000 10083 20039 52008

Current Delays

Departures
N/A
Arrivals
N/A

Destinations

Top Destinations
Airport Flights
per week
Seats
per week
  Minneapolis (MSP) 0 37 0 5

Airlines & Planes

Top Airlines
Airline Flights
per Day
Seats
per Day
  Sun Country Airlines 0 5
Top Plane Types
Model Flights Seats
Boeing B737-800 0.0/day 5/day 5.4